sensor_id;sensor_type;location;lat;lon;timestamp;P1;P2;P0
56175;PMS5003;63065;51.082;17.016;2022-09-12T00:01:46;15;15;
56175;PMS5003;63065;51.082;17.016;2022-09-12T00:04:12;16;15;
56175;PMS5003;63065;51.082;17.016;2022-09-12T00:06:37;17;17;
56175;PMS5003;63065;51.082;17.016;2022-09-12T00:09:04;19;18;
56175;PMS5003;63065;51.082;17.016;2022-09-12T00:11:28;17;16;
56175;PMS5003;63065;51.082;17.016;2022-09-12T00:13:54;20;20;
56175;PMS5003;63065;51.082;17.016;2022-09-12T00:16:21;19;18;
56175;PMS5003;63065;51.082;17.016;2022-09-12T00:18:45;16;16;
56175;PMS5003;63065;51.082;17.016;2022-09-12T00:21:10;23;22;
56175;PMS5003;63065;51.082;17.016;2022-09-12T00:23:38;22;20;
56175;PMS5003;63065;51.082;17.016;2022-09-12T00:26:02;22;19;
56175;PMS5003;63065;51.082;17.016;2022-09-12T00:28:26;20;18;
56175;PMS5003;63065;51.082;17.016;2022-09-12T00:30:51;18;17;
56175;PMS5003;63065;51.082;17.016;2022-09-12T00:33:17;18;18;
56175;PMS5003;63065;51.082;17.016;2022-09-12T00:35:43;17;16;
56175;PMS5003;63065;51.082;17.016;2022-09-12T00:38:08;13;13;
56175;PMS5003;63065;51.082;17.016;2022-09-12T00:40:33;16;14;
56175;PMS5003;63065;51.082;17.016;2022-09-12T00:42:59;17;17;
56175;PMS5003;63065;51.082;17.016;2022-09-12T00:45:26;18;15;
56175;PMS5003;63065;51.082;17.016;2022-09-12T00:47:49;19;17;
56175;PMS5003;63065;51.082;17.016;2022-09-12T00:50:14;17;15;
56175;PMS5003;63065;51.082;17.016;2022-09-12T00:52:41;22;19;
56175;PMS5003;63065;51.082;17.016;2022-09-12T00:55:06;14;14;
56175;PMS5003;63065;51.082;17.016;2022-09-12T00:57:31;17;13;
56175;PMS5003;63065;51.082;17.016;2022-09-12T00:59:57;12;12;
56175;PMS5003;63065;51.082;17.016;2022-09-12T01:02:22;15;15;
56175;PMS5003;63065;51.082;17.016;2022-09-12T01:04:48;18;15;
56175;PMS5003;63065;51.082;17.016;2022-09-12T01:07:13;14;14;
56175;PMS5003;63065;51.082;17.016;2022-09-12T01:09:39;19;16;
56175;PMS5003;63065;51.082;17.016;2022-09-12T01:12:05;17;15;
56175;PMS5003;63065;51.082;17.016;2022-09-12T01:14:30;14;14;
56175;PMS5003;63065;51.082;17.016;2022-09-12T01:16:55;19;15;
56175;PMS5003;63065;51.082;17.016;2022-09-12T01:19:27;16;12;
56175;PMS5003;63065;51.082;17.016;2022-09-12T01:21:47;13;13;
56175;PMS5003;63065;51.082;17.016;2022-09-12T01:26:41;15;12;
56175;PMS5003;63065;51.082;17.016;2022-09-12T01:31:30;16;15;
56175;PMS5003;63065;51.082;17.016;2022-09-12T01:33:55;16;14;
56175;PMS5003;63065;51.082;17.016;2022-09-12T01:36:25;13;11;
56175;PMS5003;63065;51.082;17.016;2022-09-12T01:38:45;17;15;
56175;PMS5003;63065;51.082;17.016;2022-09-12T01:41:11;17;16;
56175;PMS5003;63065;51.082;17.016;2022-09-12T01:43:36;11;10;
56175;PMS5003;63065;51.082;17.016;2022-09-12T01:46:03;12;12;
56175;PMS5003;63065;51.082;17.016;2022-09-12T01:48:27;17;13;
56175;PMS5003;63065;51.082;17.016;2022-09-12T01:50:53;15;14;
56175;PMS5003;63065;51.082;17.016;2022-09-12T01:53:19;13;13;
56175;PMS5003;63065;51.082;17.016;2022-09-12T01:55:44;15;14;
56175;PMS5003;63065;51.082;17.016;2022-09-12T01:58:10;14;13;
56175;PMS5003;63065;51.082;17.016;2022-09-12T02:00:35;15;15;
56175;PMS5003;63065;51.082;17.016;2022-09-12T02:03:00;15;15;
56175;PMS5003;63065;51.082;17.016;2022-09-12T02:05:27;14;13;
56175;PMS5003;63065;51.082;17.016;2022-09-12T02:07:51;15;14;
56175;PMS5003;63065;51.082;17.016;2022-09-12T02:10:16;14;14;
56175;PMS5003;63065;51.082;17.016;2022-09-12T02:12:43;17;15;
56175;PMS5003;63065;51.082;17.016;2022-09-12T02:15:08;15;15;
56175;PMS5003;63065;51.082;17.016;2022-09-12T02:17:33;20;20;
56175;PMS5003;63065;51.082;17.016;2022-09-12T02:20:01;16;14;
56175;PMS5003;63065;51.082;17.016;2022-09-12T02:22:24;13;10;
56175;PMS5003;63065;51.082;17.016;2022-09-12T02:24:49;20;17;
56175;PMS5003;63065;51.082;17.016;2022-09-12T02:27:15;15;15;
56175;PMS5003;63065;51.082;17.016;2022-09-12T02:29:39;15;14;
56175;PMS5003;63065;51.082;17.016;2022-09-12T02:32:05;13;12;
56175;PMS5003;63065;51.082;17.016;2022-09-12T02:34:31;18;14;
56175;PMS5003;63065;51.082;17.016;2022-09-12T02:36:59;14;12;
56175;PMS5003;63065;51.082;17.016;2022-09-12T02:39:21;15;14;
56175;PMS5003;63065;51.082;17.016;2022-09-12T02:41:47;13;11;
56175;PMS5003;63065;51.082;17.016;2022-09-12T02:44:12;12;10;
56175;PMS5003;63065;51.082;17.016;2022-09-12T02:46:39;14;12;
56175;PMS5003;63065;51.082;17.016;2022-09-12T02:49:03;10;10;
56175;PMS5003;63065;51.082;17.016;2022-09-12T02:51:29;13;12;
56175;PMS5003;63065;51.082;17.016;2022-09-12T02:53:55;13;13;
56175;PMS5003;63065;51.082;17.016;2022-09-12T02:56:22;12;11;
56175;PMS5003;63065;51.082;17.016;2022-09-12T02:58:46;15;13;
56175;PMS5003;63065;51.082;17.016;2022-09-12T03:01:13;14;12;
56175;PMS5003;63065;51.082;17.016;2022-09-12T03:03:41;14;14;
56175;PMS5003;63065;51.082;17.016;2022-09-12T03:06:03;12;12;
56175;PMS5003;63065;51.082;17.016;2022-09-12T03:08:35;19;16;
56175;PMS5003;63065;51.082;17.016;2022-09-12T03:10:58;13;12;
56175;PMS5003;63065;51.082;17.016;2022-09-12T03:13:20;14;14;
56175;PMS5003;63065;51.082;17.016;2022-09-12T03:15:45;15;14;
56175;PMS5003;63065;51.082;17.016;2022-09-12T03:18:18;16;16;
56175;PMS5003;63065;51.082;17.016;2022-09-12T03:20:40;13;12;
56175;PMS5003;63065;51.082;17.016;2022-09-12T03:23:01;13;12;
56175;PMS5003;63065;51.082;17.016;2022-09-12T03:25:29;13;12;
56175;PMS5003;63065;51.082;17.016;2022-09-12T03:27:55;17;14;
56175;PMS5003;63065;51.082;17.016;2022-09-12T03:30:18;19;17;
56175;PMS5003;63065;51.082;17.016;2022-09-12T03:32:45;13;13;
56175;PMS5003;63065;51.082;17.016;2022-09-12T03:35:10;14;13;
56175;PMS5003;63065;51.082;17.016;2022-09-12T03:37:35;15;15;
56175;PMS5003;63065;51.082;17.016;2022-09-12T03:40:01;17;16;
56175;PMS5003;63065;51.082;17.016;2022-09-12T03:42:26;13;13;
56175;PMS5003;63065;51.082;17.016;2022-09-12T03:44:51;14;11;
56175;PMS5003;63065;51.082;17.016;2022-09-12T03:47:17;18;16;
56175;PMS5003;63065;51.082;17.016;2022-09-12T03:49:42;13;13;
56175;PMS5003;63065;51.082;17.016;2022-09-12T03:52:07;20;19;
56175;PMS5003;63065;51.082;17.016;2022-09-12T03:54:32;12;12;
56175;PMS5003;63065;51.082;17.016;2022-09-12T03:56:58;16;14;
56175;PMS5003;63065;51.082;17.016;2022-09-12T03:59:24;15;15;
56175;PMS5003;63065;51.082;17.016;2022-09-12T04:01:49;15;13;
56175;PMS5003;63065;51.082;17.016;2022-09-12T04:04:15;15;14;
56175;PMS5003;63065;51.082;17.016;2022-09-12T04:06:40;16;15;
56175;PMS5003;63065;51.082;17.016;2022-09-12T04:09:06;16;14;
56175;PMS5003;63065;51.082;17.016;2022-09-12T04:11:31;19;17;
56175;PMS5003;63065;51.082;17.016;2022-09-12T04:13:56;15;14;
56175;PMS5003;63065;51.082;17.016;2022-09-12T04:16:22;11;11;
56175;PMS5003;63065;51.082;17.016;2022-09-12T04:18:47;19;15;
56175;PMS5003;63065;51.082;17.016;2022-09-12T04:21:14;12;11;
56175;PMS5003;63065;51.082;17.016;2022-09-12T04:23:39;19;16;
56175;PMS5003;63065;51.082;17.016;2022-09-12T04:26:04;14;13;
56175;PMS5003;63065;51.082;17.016;2022-09-12T04:28:30;15;15;
56175;PMS5003;63065;51.082;17.016;2022-09-12T04:30:55;15;14;
56175;PMS5003;63065;51.082;17.016;2022-09-12T04:33:21;17;15;
56175;PMS5003;63065;51.082;17.016;2022-09-12T04:35:46;21;19;
56175;PMS5003;63065;51.082;17.016;2022-09-12T04:38:11;19;19;
56175;PMS5003;63065;51.082;17.016;2022-09-12T04:40:37;17;15;
56175;PMS5003;63065;51.082;17.016;2022-09-12T04:43:03;18;16;
56175;PMS5003;63065;51.082;17.016;2022-09-12T04:45:28;13;13;
56175;PMS5003;63065;51.082;17.016;2022-09-12T04:47:53;18;16;
56175;PMS5003;63065;51.082;17.016;2022-09-12T04:50:19;17;17;
56175;PMS5003;63065;51.082;17.016;2022-09-12T04:52:47;18;16;
56175;PMS5003;63065;51.082;17.016;2022-09-12T04:55:10;16;15;
56175;PMS5003;63065;51.082;17.016;2022-09-12T04:57:35;17;16;
56175;PMS5003;63065;51.082;17.016;2022-09-12T05:00:01;13;13;
56175;PMS5003;63065;51.082;17.016;2022-09-12T05:02:26;21;16;
56175;PMS5003;63065;51.082;17.016;2022-09-12T05:04:52;16;14;
56175;PMS5003;63065;51.082;17.016;2022-09-12T05:07:17;17;17;
56175;PMS5003;63065;51.082;17.016;2022-09-12T05:09:43;20;19;
56175;PMS5003;63065;51.082;17.016;2022-09-12T05:12:09;13;12;
56175;PMS5003;63065;51.082;17.016;2022-09-12T05:14:34;20;17;
56175;PMS5003;63065;51.082;17.016;2022-09-12T05:17:00;14;14;
56175;PMS5003;63065;51.082;17.016;2022-09-12T05:19:26;19;17;
56175;PMS5003;63065;51.082;17.016;2022-09-12T05:21:51;16;15;
56175;PMS5003;63065;51.082;17.016;2022-09-12T05:24:17;17;14;
56175;PMS5003;63065;51.082;17.016;2022-09-12T05:26:43;15;14;
56175;PMS5003;63065;51.082;17.016;2022-09-12T05:29:08;15;15;
56175;PMS5003;63065;51.082;17.016;2022-09-12T05:31:33;20;17;
56175;PMS5003;63065;51.082;17.016;2022-09-12T05:33:59;20;20;
56175;PMS5003;63065;51.082;17.016;2022-09-12T05:36:25;14;13;
56175;PMS5003;63065;51.082;17.016;2022-09-12T05:38:50;18;18;
56175;PMS5003;63065;51.082;17.016;2022-09-12T05:41:16;21;18;
56175;PMS5003;63065;51.082;17.016;2022-09-12T05:43:41;20;17;
56175;PMS5003;63065;51.082;17.016;2022-09-12T05:46:07;18;18;
56175;PMS5003;63065;51.082;17.016;2022-09-12T05:48:31;18;18;
56175;PMS5003;63065;51.082;17.016;2022-09-12T05:50:59;19;18;
56175;PMS5003;63065;51.082;17.016;2022-09-12T05:53:22;14;14;
56175;PMS5003;63065;51.082;17.016;2022-09-12T05:55:48;17;15;
56175;PMS5003;63065;51.082;17.016;2022-09-12T05:58:13;15;14;
56175;PMS5003;63065;51.082;17.016;2022-09-12T06:00:38;15;15;
56175;PMS5003;63065;51.082;17.016;2022-09-12T06:03:03;17;17;
56175;PMS5003;63065;51.082;17.016;2022-09-12T06:05:29;18;16;
56175;PMS5003;63065;51.082;17.016;2022-09-12T06:07:54;14;12;
56175;PMS5003;63065;51.082;17.016;2022-09-12T06:10:19;13;12;
56175;PMS5003;63065;51.082;17.016;2022-09-12T06:12:45;18;16;
56175;PMS5003;63065;51.082;17.016;2022-09-12T06:15:10;16;14;
56175;PMS5003;63065;51.082;17.016;2022-09-12T06:17:36;17;15;
56175;PMS5003;63065;51.082;17.016;2022-09-12T06:20:01;17;17;
56175;PMS5003;63065;51.082;17.016;2022-09-12T06:22:26;13;13;
56175;PMS5003;63065;51.082;17.016;2022-09-12T06:24:52;18;15;
56175;PMS5003;63065;51.082;17.016;2022-09-12T06:27:18;9;9;
56175;PMS5003;63065;51.082;17.016;2022-09-12T06:29:43;16;13;
56175;PMS5003;63065;51.082;17.016;2022-09-12T06:32:09;14;14;
56175;PMS5003;63065;51.082;17.016;2022-09-12T06:34:34;17;16;
56175;PMS5003;63065;51.082;17.016;2022-09-12T06:36:59;11;10;
56175;PMS5003;63065;51.082;17.016;2022-09-12T06:39:25;13;11;
56175;PMS5003;63065;51.082;17.016;2022-09-12T06:41:50;13;13;
56175;PMS5003;63065;51.082;17.016;2022-09-12T06:44:16;12;12;
56175;PMS5003;63065;51.082;17.016;2022-09-12T06:46:41;14;13;
56175;PMS5003;63065;51.082;17.016;2022-09-12T06:49:07;10;10;
56175;PMS5003;63065;51.082;17.016;2022-09-12T06:51:33;12;12;
56175;PMS5003;63065;51.082;17.016;2022-09-12T06:53:58;13;12;
56175;PMS5003;63065;51.082;17.016;2022-09-12T06:56:24;10;10;
56175;PMS5003;63065;51.082;17.016;2022-09-12T06:58:50;17;16;
56175;PMS5003;63065;51.082;17.016;2022-09-12T07:01:15;9;9;
56175;PMS5003;63065;51.082;17.016;2022-09-12T07:03:40;13;13;
56175;PMS5003;63065;51.082;17.016;2022-09-12T07:06:06;11;10;
56175;PMS5003;63065;51.082;17.016;2022-09-12T07:08:31;12;11;
56175;PMS5003;63065;51.082;17.016;2022-09-12T07:10:57;14;12;
56175;PMS5003;63065;51.082;17.016;2022-09-12T07:13:22;13;12;
56175;PMS5003;63065;51.082;17.016;2022-09-12T07:15:48;12;11;
56175;PMS5003;63065;51.082;17.016;2022-09-12T07:18:13;9;9;
56175;PMS5003;63065;51.082;17.016;2022-09-12T07:20:39;12;12;
56175;PMS5003;63065;51.082;17.016;2022-09-12T07:23:04;8;8;
56175;PMS5003;63065;51.082;17.016;2022-09-12T07:25:30;8;8;
56175;PMS5003;63065;51.082;17.016;2022-09-12T07:27:56;7;7;
56175;PMS5003;63065;51.082;17.016;2022-09-12T07:30:21;9;8;
56175;PMS5003;63065;51.082;17.016;2022-09-12T07:32:46;9;9;
56175;PMS5003;63065;51.082;17.016;2022-09-12T07:35:12;7;7;
56175;PMS5003;63065;51.082;17.016;2022-09-12T07:37:38;8;8;
56175;PMS5003;63065;51.082;17.016;2022-09-12T07:40:04;8;8;
56175;PMS5003;63065;51.082;17.016;2022-09-12T07:42:29;9;8;
56175;PMS5003;63065;51.082;17.016;2022-09-12T07:44:55;10;9;
56175;PMS5003;63065;51.082;17.016;2022-09-12T07:47:20;5;5;
56175;PMS5003;63065;51.082;17.016;2022-09-12T07:49:47;11;8;
56175;PMS5003;63065;51.082;17.016;2022-09-12T07:52:12;7;5;
56175;PMS5003;63065;51.082;17.016;2022-09-12T07:54:37;7;7;
56175;PMS5003;63065;51.082;17.016;2022-09-12T07:57:03;7;7;
56175;PMS5003;63065;51.082;17.016;2022-09-12T07:59:28;8;8;
56175;PMS5003;63065;51.082;17.016;2022-09-12T08:01:54;12;10;
56175;PMS5003;63065;51.082;17.016;2022-09-12T08:04:20;8;8;
56175;PMS5003;63065;51.082;17.016;2022-09-12T08:06:46;6;6;
56175;PMS5003;63065;51.082;17.016;2022-09-12T08:09:11;7;7;
56175;PMS5003;63065;51.082;17.016;2022-09-12T08:11:37;6;6;
56175;PMS5003;63065;51.082;17.016;2022-09-12T08:14:03;10;10;
56175;PMS5003;63065;51.082;17.016;2022-09-12T08:16:29;8;8;
56175;PMS5003;63065;51.082;17.016;2022-09-12T08:18:54;10;8;
56175;PMS5003;63065;51.082;17.016;2022-09-12T08:21:21;9;9;
56175;PMS5003;63065;51.082;17.016;2022-09-12T08:23:46;6;6;
56175;PMS5003;63065;51.082;17.016;2022-09-12T08:26:12;7;7;
56175;PMS5003;63065;51.082;17.016;2022-09-12T08:28:37;8;6;
56175;PMS5003;63065;51.082;17.016;2022-09-12T08:31:04;7;7;
56175;PMS5003;63065;51.082;17.016;2022-09-12T08:33:29;7;7;
56175;PMS5003;63065;51.082;17.016;2022-09-12T08:36:00;11;8;
56175;PMS5003;63065;51.082;17.016;2022-09-12T08:38:20;9;9;
56175;PMS5003;63065;51.082;17.016;2022-09-12T08:40:47;9;8;
56175;PMS5003;63065;51.082;17.016;2022-09-12T08:43:13;5;5;
56175;PMS5003;63065;51.082;17.016;2022-09-12T08:45:37;8;7;
56175;PMS5003;63065;51.082;17.016;2022-09-12T08:48:03;8;6;
56175;PMS5003;63065;51.082;17.016;2022-09-12T08:50:27;9;7;
56175;PMS5003;63065;51.082;17.016;2022-09-12T08:52:54;13;7;
56175;PMS5003;63065;51.082;17.016;2022-09-12T08:55:23;6;6;
56175;PMS5003;63065;51.082;17.016;2022-09-12T08:57:44;8;5;
56175;PMS5003;63065;51.082;17.016;2022-09-12T09:00:11;9;8;
56175;PMS5003;63065;51.082;17.016;2022-09-12T09:02:40;9;8;
56175;PMS5003;63065;51.082;17.016;2022-09-12T09:05:03;7;7;
56175;PMS5003;63065;51.082;17.016;2022-09-12T09:07:32;8;7;
56175;PMS5003;63065;51.082;17.016;2022-09-12T09:09:56;8;7;
56175;PMS5003;63065;51.082;17.016;2022-09-12T09:12:19;8;8;
56175;PMS5003;63065;51.082;17.016;2022-09-12T09:14:49;10;9;
56175;PMS5003;63065;51.082;17.016;2022-09-12T09:17:10;11;8;
56175;PMS5003;63065;51.082;17.016;2022-09-12T09:19:35;9;8;
56175;PMS5003;63065;51.082;17.016;2022-09-12T09:22:01;10;10;
56175;PMS5003;63065;51.082;17.016;2022-09-12T09:24:27;16;13;
56175;PMS5003;63065;51.082;17.016;2022-09-12T09:26:53;13;13;
56175;PMS5003;63065;51.082;17.016;2022-09-12T09:29:18;7;7;
56175;PMS5003;63065;51.082;17.016;2022-09-12T09:31:43;12;12;
56175;PMS5003;63065;51.082;17.016;2022-09-12T09:34:10;10;8;
56175;PMS5003;63065;51.082;17.016;2022-09-12T09:36:35;11;11;
56175;PMS5003;63065;51.082;17.016;2022-09-12T09:39:00;8;8;
56175;PMS5003;63065;51.082;17.016;2022-09-12T09:41:29;12;12;
56175;PMS5003;63065;51.082;17.016;2022-09-12T09:43:49;8;8;
56175;PMS5003;63065;51.082;17.016;2022-09-12T09:46:15;13;13;
56175;PMS5003;63065;51.082;17.016;2022-09-12T09:48:41;8;8;
56175;PMS5003;63065;51.082;17.016;2022-09-12T09:51:06;17;13;
56175;PMS5003;63065;51.082;17.016;2022-09-12T09:53:33;13;11;
56175;PMS5003;63065;51.082;17.016;2022-09-12T09:55:57;8;7;
56175;PMS5003;63065;51.082;17.016;2022-09-12T10:00:48;10;8;
56175;PMS5003;63065;51.082;17.016;2022-09-12T10:05:43;9;9;
56175;PMS5003;63065;51.082;17.016;2022-09-12T10:08:05;9;9;
56175;PMS5003;63065;51.082;17.016;2022-09-12T10:10:31;10;9;
56175;PMS5003;63065;51.082;17.016;2022-09-12T10:15:23;9;8;
56175;PMS5003;63065;51.082;17.016;2022-09-12T10:17:49;7;7;
56175;PMS5003;63065;51.082;17.016;2022-09-12T10:22:39;7;7;
56175;PMS5003;63065;51.082;17.016;2022-09-12T10:25:05;8;8;
56175;PMS5003;63065;51.082;17.016;2022-09-12T10:27:31;9;7;
56175;PMS5003;63065;51.082;17.016;2022-09-12T10:29:59;7;7;
56175;PMS5003;63065;51.082;17.016;2022-09-12T10:32:23;9;9;
56175;PMS5003;63065;51.082;17.016;2022-09-12T10:34:47;8;8;
56175;PMS5003;63065;51.082;17.016;2022-09-12T10:37:16;12;9;
56175;PMS5003;63065;51.082;17.016;2022-09-12T10:39:38;10;10;
56175;PMS5003;63065;51.082;17.016;2022-09-12T10:42:04;9;8;
56175;PMS5003;63065;51.082;17.016;2022-09-12T10:44:30;9;9;
56175;PMS5003;63065;51.082;17.016;2022-09-12T10:46:56;9;8;
56175;PMS5003;63065;51.082;17.016;2022-09-12T10:49:22;11;9;
56175;PMS5003;63065;51.082;17.016;2022-09-12T10:51:47;15;13;
56175;PMS5003;63065;51.082;17.016;2022-09-12T10:54:12;13;13;
56175;PMS5003;63065;51.082;17.016;2022-09-12T10:56:38;8;8;
56175;PMS5003;63065;51.082;17.016;2022-09-12T10:59:07;10;10;
56175;PMS5003;63065;51.082;17.016;2022-09-12T11:01:35;7;7;
56175;PMS5003;63065;51.082;17.016;2022-09-12T11:04:01;7;7;
56175;PMS5003;63065;51.082;17.016;2022-09-12T11:06:21;6;6;
56175;PMS5003;63065;51.082;17.016;2022-09-12T11:08:50;6;6;
56175;PMS5003;63065;51.082;17.016;2022-09-12T11:11:27;6;6;
56175;PMS5003;63065;51.082;17.016;2022-09-12T11:13:44;8;8;
56175;PMS5003;63065;51.082;17.016;2022-09-12T11:16:07;8;8;
56175;PMS5003;63065;51.082;17.016;2022-09-12T11:18:33;11;10;
56175;PMS5003;63065;51.082;17.016;2022-09-12T11:20:58;9;9;
56175;PMS5003;63065;51.082;17.016;2022-09-12T11:23:24;6;6;
56175;PMS5003;63065;51.082;17.016;2022-09-12T11:25:46;5;5;
56175;PMS5003;63065;51.082;17.016;2022-09-12T11:28:15;8;8;
56175;PMS5003;63065;51.082;17.016;2022-09-12T11:30:38;5;5;
56175;PMS5003;63065;51.082;17.016;2022-09-12T11:33:05;7;7;
56175;PMS5003;63065;51.082;17.016;2022-09-12T11:35:28;6;6;
56175;PMS5003;63065;51.082;17.016;2022-09-12T11:37:57;6;6;
56175;PMS5003;63065;51.082;17.016;2022-09-12T11:40:22;10;10;
56175;PMS5003;63065;51.082;17.016;2022-09-12T11:42:44;8;7;
56175;PMS5003;63065;51.082;17.016;2022-09-12T11:45:12;8;7;
56175;PMS5003;63065;51.082;17.016;2022-09-12T11:47:36;6;5;
56175;PMS5003;63065;51.082;17.016;2022-09-12T11:50:02;5;5;
56175;PMS5003;63065;51.082;17.016;2022-09-12T11:52:28;5;5;
56175;PMS5003;63065;51.082;17.016;2022-09-12T11:54:58;8;7;
56175;PMS5003;63065;51.082;17.016;2022-09-12T11:57:19;7;7;
56175;PMS5003;63065;51.082;17.016;2022-09-12T11:59:46;7;7;
56175;PMS5003;63065;51.082;17.016;2022-09-12T12:02:11;7;7;
56175;PMS5003;63065;51.082;17.016;2022-09-12T12:04:37;7;7;
56175;PMS5003;63065;51.082;17.016;2022-09-12T12:07:02;7;7;
56175;PMS5003;63065;51.082;17.016;2022-09-12T12:09:27;8;8;
56175;PMS5003;63065;51.082;17.016;2022-09-12T12:11:53;10;7;
56175;PMS5003;63065;51.082;17.016;2022-09-12T12:14:19;8;8;
56175;PMS5003;63065;51.082;17.016;2022-09-12T12:16:43;6;6;
56175;PMS5003;63065;51.082;17.016;2022-09-12T12:19:17;7;6;
56175;PMS5003;63065;51.082;17.016;2022-09-12T12:21:36;7;7;
56175;PMS5003;63065;51.082;17.016;2022-09-12T12:24:03;10;9;
56175;PMS5003;63065;51.082;17.016;2022-09-12T12:28:56;6;6;
56175;PMS5003;63065;51.082;17.016;2022-09-12T12:31:17;8;8;
56175;PMS5003;63065;51.082;17.016;2022-09-12T12:36:09;9;9;
56175;PMS5003;63065;51.082;17.016;2022-09-12T12:38:34;7;7;
56175;PMS5003;63065;51.082;17.016;2022-09-12T12:43:27;8;8;
56175;PMS5003;63065;51.082;17.016;2022-09-12T12:48:17;9;6;
56175;PMS5003;63065;51.082;17.016;2022-09-12T12:50:43;8;8;
56175;PMS5003;63065;51.082;17.016;2022-09-12T12:55:34;8;8;
56175;PMS5003;63065;51.082;17.016;2022-09-12T12:57:59;6;6;
56175;PMS5003;63065;51.082;17.016;2022-09-12T13:00:26;8;8;
56175;PMS5003;63065;51.082;17.016;2022-09-12T13:02:51;8;8;
56175;PMS5003;63065;51.082;17.016;2022-09-12T13:05:16;7;7;
56175;PMS5003;63065;51.082;17.016;2022-09-12T13:07:42;9;8;
56175;PMS5003;63065;51.082;17.016;2022-09-12T13:12:34;9;7;
56175;PMS5003;63065;51.082;17.016;2022-09-12T13:14:59;9;9;
56175;PMS5003;63065;51.082;17.016;2022-09-12T13:17:26;8;8;
56175;PMS5003;63065;51.082;17.016;2022-09-12T13:19:50;9;9;
56175;PMS5003;63065;51.082;17.016;2022-09-12T13:22:15;6;6;
56175;PMS5003;63065;51.082;17.016;2022-09-12T13:24:43;6;6;
56175;PMS5003;63065;51.082;17.016;2022-09-12T13:29:31;6;6;
56175;PMS5003;63065;51.082;17.016;2022-09-12T13:31:57;7;6;
56175;PMS5003;63065;51.082;17.016;2022-09-12T13:34:23;8;8;
56175;PMS5003;63065;51.082;17.016;2022-09-12T13:36:51;8;8;
56175;PMS5003;63065;51.082;17.016;2022-09-12T13:39:15;8;5;
56175;PMS5003;63065;51.082;17.016;2022-09-12T13:41:45;10;8;
56175;PMS5003;63065;51.082;17.016;2022-09-12T13:44:06;8;8;
56175;PMS5003;63065;51.082;17.016;2022-09-12T13:46:31;8;8;
56175;PMS5003;63065;51.082;17.016;2022-09-12T13:48:56;7;7;
56175;PMS5003;63065;51.082;17.016;2022-09-12T13:51:23;9;9;
56175;PMS5003;63065;51.082;17.016;2022-09-12T13:53:48;6;6;
56175;PMS5003;63065;51.082;17.016;2022-09-12T13:56:14;9;9;
56175;PMS5003;63065;51.082;17.016;2022-09-12T13:58:38;8;7;
56175;PMS5003;63065;51.082;17.016;2022-09-12T14:01:05;5;5;
56175;PMS5003;63065;51.082;17.016;2022-09-12T14:03:31;8;6;
56175;PMS5003;63065;51.082;17.016;2022-09-12T14:05:57;11;8;
56175;PMS5003;63065;51.082;17.016;2022-09-12T14:08:22;10;10;
56175;PMS5003;63065;51.082;17.016;2022-09-12T14:10:47;6;6;
56175;PMS5003;63065;51.082;17.016;2022-09-12T14:13:15;10;9;
56175;PMS5003;63065;51.082;17.016;2022-09-12T14:15:38;6;6;
56175;PMS5003;63065;51.082;17.016;2022-09-12T14:18:05;9;7;
56175;PMS5003;63065;51.082;17.016;2022-09-12T14:20:31;8;6;
56175;PMS5003;63065;51.082;17.016;2022-09-12T14:22:56;6;6;
56175;PMS5003;63065;51.082;17.016;2022-09-12T14:25:22;7;7;
56175;PMS5003;63065;51.082;17.016;2022-09-12T14:27:48;9;9;
56175;PMS5003;63065;51.082;17.016;2022-09-12T14:32:38;6;6;
56175;PMS5003;63065;51.082;17.016;2022-09-12T14:35:06;8;8;
56175;PMS5003;63065;51.082;17.016;2022-09-12T14:37:31;8;7;
56175;PMS5003;63065;51.082;17.016;2022-09-12T14:39:55;7;7;
56175;PMS5003;63065;51.082;17.016;2022-09-12T14:42:21;8;8;
56175;PMS5003;63065;51.082;17.016;2022-09-12T14:44:50;7;7;
56175;PMS5003;63065;51.082;17.016;2022-09-12T14:47:13;6;6;
56175;PMS5003;63065;51.082;17.016;2022-09-12T14:49:38;11;8;
56175;PMS5003;63065;51.082;17.016;2022-09-12T14:52:04;7;7;
56175;PMS5003;63065;51.082;17.016;2022-09-12T14:56:55;6;6;
56175;PMS5003;63065;51.082;17.016;2022-09-12T14:59:25;7;5;
56175;PMS5003;63065;51.082;17.016;2022-09-12T15:01:46;6;6;
56175;PMS5003;63065;51.082;17.016;2022-09-12T15:04:11;7;7;
56175;PMS5003;63065;51.082;17.016;2022-09-12T15:06:37;6;6;
56175;PMS5003;63065;51.082;17.016;2022-09-12T15:09:04;7;7;
56175;PMS5003;63065;51.082;17.016;2022-09-12T15:11:28;4;4;
56175;PMS5003;63065;51.082;17.016;2022-09-12T15:13:54;9;8;
56175;PMS5003;63065;51.082;17.016;2022-09-12T15:16:19;5;5;
56175;PMS5003;63065;51.082;17.016;2022-09-12T15:18:45;7;6;
56175;PMS5003;63065;51.082;17.016;2022-09-12T15:21:11;9;6;
56175;PMS5003;63065;51.082;17.016;2022-09-12T15:23:36;12;9;
56175;PMS5003;63065;51.082;17.016;2022-09-12T15:26:01;7;7;
56175;PMS5003;63065;51.082;17.016;2022-09-12T15:28:28;8;8;
56175;PMS5003;63065;51.082;17.016;2022-09-12T15:30:53;9;9;
56175;PMS5003;63065;51.082;17.016;2022-09-12T15:33:19;7;7;
56175;PMS5003;63065;51.082;17.016;2022-09-12T15:35:44;8;8;
56175;PMS5003;63065;51.082;17.016;2022-09-12T15:38:10;8;8;
56175;PMS5003;63065;51.082;17.016;2022-09-12T15:40:37;7;7;
56175;PMS5003;63065;51.082;17.016;2022-09-12T15:43:01;9;7;
56175;PMS5003;63065;51.082;17.016;2022-09-12T15:45:29;9;9;
56175;PMS5003;63065;51.082;17.016;2022-09-12T15:47:52;10;10;
56175;PMS5003;63065;51.082;17.016;2022-09-12T15:50:18;9;9;
56175;PMS5003;63065;51.082;17.016;2022-09-12T15:52:44;8;8;
56175;PMS5003;63065;51.082;17.016;2022-09-12T15:55:11;9;8;
56175;PMS5003;63065;51.082;17.016;2022-09-12T15:57:35;10;9;
56175;PMS5003;63065;51.082;17.016;2022-09-12T16:00:01;8;8;
56175;PMS5003;63065;51.082;17.016;2022-09-12T16:02:26;7;7;
56175;PMS5003;63065;51.082;17.016;2022-09-12T16:04:52;10;8;
56175;PMS5003;63065;51.082;17.016;2022-09-12T16:07:18;8;8;
56175;PMS5003;63065;51.082;17.016;2022-09-12T16:09:43;9;7;
56175;PMS5003;63065;51.082;17.016;2022-09-12T16:12:09;8;8;
56175;PMS5003;63065;51.082;17.016;2022-09-12T16:14:35;9;9;
56175;PMS5003;63065;51.082;17.016;2022-09-12T16:17:01;10;9;
56175;PMS5003;63065;51.082;17.016;2022-09-12T16:19:26;10;9;
56175;PMS5003;63065;51.082;17.016;2022-09-12T16:21:52;9;9;
56175;PMS5003;63065;51.082;17.016;2022-09-12T16:24:18;7;7;
56175;PMS5003;63065;51.082;17.016;2022-09-12T16:26:44;10;9;
56175;PMS5003;63065;51.082;17.016;2022-09-12T16:29:11;12;10;
56175;PMS5003;63065;51.082;17.016;2022-09-12T16:31:35;9;8;
56175;PMS5003;63065;51.082;17.016;2022-09-12T16:34:01;9;8;
56175;PMS5003;63065;51.082;17.016;2022-09-12T16:36:27;10;9;
56175;PMS5003;63065;51.082;17.016;2022-09-12T16:38:53;8;8;
56175;PMS5003;63065;51.082;17.016;2022-09-12T16:41:18;10;7;